createdAt,value
2019-04-01T00:01:56.587Z,12.90
2019-04-01T00:04:26.991Z,12.90
2019-04-01T00:06:57.442Z,12.80
2019-04-01T00:09:27.971Z,12.60
2019-04-01T00:11:59.968Z,12.80
2019-04-01T00:14:31.637Z,12.80
2019-04-01T00:17:03.164Z,12.70
2019-04-01T00:19:33.888Z,12.70
2019-04-01T00:22:04.581Z,12.70
2019-04-01T00:24:35.264Z,12.70
2019-04-01T00:27:05.794Z,12.70
2019-04-01T00:29:36.438Z,12.70
2019-04-01T00:32:07.166Z,12.70
2019-04-01T00:34:37.904Z,12.70
2019-04-01T00:37:08.546Z,12.60
2019-04-01T00:39:42.515Z,12.60
2019-04-01T00:42:20.903Z,12.40
2019-04-01T00:44:51.536Z,12.50
2019-04-01T00:47:22.730Z,12.40
2019-04-01T00:49:53.997Z,12.40
2019-04-01T00:52:24.421Z,12.40
2019-04-01T00:54:54.840Z,12.30
2019-04-01T00:57:25.440Z,12.30
2019-04-01T00:59:56.004Z,12.20
2019-04-01T01:02:27.360Z,12.20
2019-04-01T01:04:57.600Z,12.30
2019-04-01T01:07:30.032Z,12.10
2019-04-01T01:10:01.113Z,12.20
2019-04-01T01:12:34.483Z,12.20
2019-04-01T01:15:05.931Z,12.20
2019-04-01T01:17:37.180Z,12.10
2019-04-01T01:20:09.519Z,13.20
2019-04-01T01:22:42.130Z,12.00
2019-04-01T01:25:13.201Z,12.00
2019-04-01T01:27:45.439Z,12.00
2019-04-01T01:30:16.222Z,12.00
2019-04-01T01:32:48.496Z,12.00
2019-04-01T01:35:19.069Z,11.90
2019-04-01T01:37:51.210Z,11.90
2019-04-01T01:40:23.436Z,11.90
2019-04-01T01:42:54.071Z,11.90
2019-04-01T01:45:24.756Z,11.90
2019-04-01T01:47:55.294Z,11.80
2019-04-01T01:50:25.934Z,11.80
2019-04-01T01:52:56.848Z,11.80
2019-04-01T01:55:27.283Z,11.80
2019-04-01T01:58:01.450Z,11.80
2019-04-01T02:00:34.117Z,11.70
2019-04-01T02:03:05.116Z,11.70
2019-04-01T02:05:35.687Z,11.70
2019-04-01T02:08:06.389Z,11.70
2019-04-01T02:10:36.955Z,11.70
2019-04-01T02:13:07.569Z,11.60
2019-04-01T02:15:40.319Z,11.60
2019-04-01T02:18:11.295Z,11.60
2019-04-01T02:20:41.926Z,11.50
2019-04-01T02:23:14.291Z,11.50
2019-04-01T02:25:44.745Z,11.20
2019-04-01T02:28:17.134Z,11.50
2019-04-01T02:30:47.903Z,11.40
2019-04-01T02:33:19.187Z,11.40
2019-04-01T02:35:49.642Z,11.40
2019-04-01T02:38:22.009Z,11.30
2019-04-01T02:40:52.709Z,11.30
2019-04-01T02:43:23.867Z,11.30
2019-04-01T02:45:54.457Z,11.20
2019-04-01T02:48:25.004Z,11.20
2019-04-01T02:50:55.459Z,11.20
2019-04-01T02:53:27.551Z,11.10
2019-04-01T02:55:58.486Z,11.10
2019-04-01T02:58:29.104Z,11.10
2019-04-01T03:01:01.653Z,11.10
2019-04-01T03:03:33.795Z,11.10
2019-04-01T03:06:04.263Z,11.00
2019-04-01T03:08:35.056Z,10.90
2019-04-01T03:11:10.336Z,10.90
2019-04-01T03:13:38.841Z,10.80
2019-04-01T03:16:09.356Z,10.80
2019-04-01T03:18:39.837Z,10.70
2019-04-01T03:21:10.333Z,10.60
2019-04-01T03:23:41.526Z,10.70
2019-04-01T03:26:12.056Z,10.60
2019-04-01T03:28:42.728Z,10.60
2019-04-01T03:31:13.403Z,10.60
2019-04-01T03:33:44.278Z,10.60
2019-04-01T03:36:14.971Z,10.70
2019-04-01T03:41:16.380Z,10.70
2019-04-01T03:43:47.096Z,10.70
2019-04-01T03:46:17.552Z,10.70
2019-04-01T03:48:49.031Z,10.60
2019-04-01T03:51:20.410Z,10.60
2019-04-01T03:53:53.384Z,10.60
2019-04-01T03:56:25.248Z,10.60
2019-04-01T03:58:55.631Z,10.60
2019-04-01T04:03:58.171Z,10.50
2019-04-01T04:06:28.801Z,10.40
2019-04-01T04:09:01.862Z,10.40
2019-04-01T04:11:33.276Z,10.30
2019-04-01T04:14:05.325Z,11.10
2019-04-01T04:16:35.900Z,10.80
2019-04-01T04:19:08.961Z,10.20
2019-04-01T04:21:39.703Z,10.10
2019-04-01T04:24:11.508Z,10.20
2019-04-01T04:26:41.922Z,10.10
2019-04-01T04:29:12.964Z,10.10
2019-04-01T04:31:45.283Z,10.20
2019-04-01T04:34:17.373Z,10.10
2019-04-01T04:36:48.544Z,10.10
2019-04-01T04:39:20.224Z,10.20
2019-04-01T04:41:52.303Z,10.10
2019-04-01T04:44:23.257Z,10.10
2019-04-01T04:46:54.505Z,12.00
2019-04-01T04:49:25.070Z,10.10
2019-04-01T04:51:57.409Z,10.10
2019-04-01T04:54:28.066Z,10.20
2019-04-01T04:56:58.543Z,10.00
2019-04-01T04:59:31.567Z,10.00
2019-04-01T05:02:04.581Z,10.10
2019-04-01T05:04:37.139Z,10.10
2019-04-01T05:07:09.766Z,10.00
2019-04-01T05:09:43.154Z,10.00
2019-04-01T05:12:16.034Z,10.00
2019-04-01T05:14:48.066Z,10.10
2019-04-01T05:19:52.238Z,9.90
2019-04-01T05:22:27.662Z,10.00
2019-04-01T05:24:59.019Z,10.00
2019-04-01T05:27:30.752Z,9.90
2019-04-01T05:30:09.942Z,10.00
2019-04-01T05:32:43.124Z,10.20
2019-04-01T05:35:25.930Z,10.10
2019-04-01T05:37:58.342Z,10.10
2019-04-01T05:40:31.410Z,10.10
2019-04-01T05:46:32.575Z,10.20
2019-04-01T05:49:05.109Z,10.20
2019-04-01T05:51:37.902Z,10.20
2019-04-01T05:54:13.876Z,10.50
2019-04-01T05:59:22.638Z,10.40
2019-04-01T06:01:54.784Z,10.40
2019-04-01T06:04:27.998Z,10.40
2019-04-01T06:07:00.215Z,10.40
2019-04-01T06:15:31.495Z,10.50
2019-04-01T06:18:02.518Z,9.30
2019-04-01T06:20:36.636Z,10.60
2019-04-01T06:23:10.053Z,10.60
2019-04-01T06:25:41.000Z,10.60
2019-04-01T06:30:51.592Z,10.10
2019-04-01T06:36:01.452Z,10.80
2019-04-01T06:38:34.784Z,13.50
2019-04-01T06:43:38.409Z,10.90
2019-04-01T06:46:09.068Z,10.30
2019-04-01T06:48:39.666Z,11.20
2019-04-01T06:51:12.817Z,11.30
2019-04-01T06:53:47.070Z,13.40
2019-04-01T06:56:18.062Z,11.50
2019-04-01T06:58:48.920Z,11.50
2019-04-01T07:01:19.316Z,11.60
2019-04-01T07:03:50.647Z,11.60
2019-04-01T07:06:22.623Z,11.70
2019-04-01T07:08:52.971Z,11.70
2019-04-01T07:11:23.482Z,11.90
2019-04-01T07:13:53.829Z,11.90
2019-04-01T07:16:31.029Z,12.30
2019-04-01T07:19:01.425Z,12.20
2019-04-01T07:21:32.917Z,12.40
2019-04-01T07:24:03.937Z,12.70
2019-04-01T07:26:35.775Z,12.40
2019-04-01T07:29:06.498Z,12.70
2019-04-01T07:31:38.295Z,12.60
2019-04-01T07:34:11.989Z,12.60
2019-04-01T07:36:43.143Z,12.50
2019-04-01T07:39:13.940Z,12.50
2019-04-01T07:41:44.163Z,12.40
2019-04-01T07:44:17.795Z,9.30
2019-04-01T07:46:48.890Z,12.50
2019-04-01T07:49:19.941Z,12.70
2019-04-01T07:51:50.873Z,12.90
2019-04-01T07:54:24.296Z,12.90
2019-04-01T07:56:55.111Z,13.10
2019-04-01T07:59:26.545Z,13.00
2019-04-01T08:01:57.809Z,13.20
2019-04-01T08:04:28.781Z,13.00
2019-04-01T08:06:59.244Z,13.00
2019-04-01T08:09:31.042Z,12.90
2019-04-01T08:12:02.058Z,12.90
2019-04-01T08:14:37.327Z,12.90
2019-04-01T08:17:07.598Z,13.00
2019-04-01T08:19:40.620Z,13.00
2019-04-01T08:22:11.048Z,13.10
2019-04-01T08:24:41.488Z,13.00
2019-04-01T08:27:13.257Z,13.10
2019-04-01T08:29:43.919Z,13.10
2019-04-01T08:34:47.206Z,13.30
2019-04-01T08:37:17.570Z,13.50
2019-04-01T08:39:48.696Z,13.60
2019-04-01T08:42:19.280Z,13.80
2019-04-01T08:44:53.053Z,13.80
2019-04-01T08:47:25.230Z,13.50
2019-04-01T08:49:56.506Z,14.10
2019-04-01T08:52:28.018Z,14.20
2019-04-01T08:54:59.923Z,14.20
2019-04-01T08:57:32.499Z,14.40
2019-04-01T09:00:03.259Z,14.60
2019-04-01T09:02:38.260Z,15.20
2019-04-01T09:05:09.865Z,15.20
2019-04-01T09:07:42.286Z,15.20
2019-04-01T09:10:14.081Z,15.10
2019-04-01T09:12:47.224Z,15.10
2019-04-01T09:15:17.724Z,15.10
2019-04-01T09:17:49.296Z,15.00
2019-04-01T09:20:20.664Z,14.90
2019-04-01T09:22:50.849Z,15.00
2019-04-01T09:25:23.936Z,15.20
2019-04-01T09:27:54.300Z,15.40
2019-04-01T09:30:24.478Z,15.50
2019-04-01T09:32:55.852Z,15.30
2019-04-01T09:35:26.887Z,15.30
2019-04-01T09:38:00.299Z,15.40
2019-04-01T09:40:32.323Z,15.40
2019-04-01T09:43:03.153Z,15.40
2019-04-01T09:45:39.523Z,15.40
2019-04-01T09:48:12.137Z,15.30
2019-04-01T09:50:43.549Z,15.10
2019-04-01T09:55:48.322Z,15.30
2019-04-01T09:58:18.441Z,15.30
2019-04-01T10:00:53.238Z,15.50
2019-04-01T10:03:24.898Z,15.60
2019-04-01T10:05:57.817Z,15.70
2019-04-01T10:08:42.193Z,15.70
2019-04-01T10:11:03.451Z,15.60
2019-04-01T10:13:34.699Z,15.50
2019-04-01T10:16:08.679Z,15.60
2019-04-01T10:18:39.518Z,15.80
2019-04-01T10:21:09.881Z,15.90
2019-04-01T10:23:40.257Z,15.90
2019-04-01T10:28:42.044Z,16.00
2019-04-01T10:31:13.011Z,16.20
2019-04-01T10:33:44.202Z,16.20
2019-04-01T10:36:15.070Z,16.20
2019-04-01T10:38:46.902Z,16.20
2019-04-01T10:43:48.652Z,16.30
2019-04-01T10:46:21.931Z,16.20
2019-04-01T10:48:52.933Z,16.20
2019-04-01T10:51:23.869Z,16.30
2019-04-01T10:53:54.651Z,16.20
2019-04-01T10:56:25.061Z,16.40
2019-04-01T10:58:55.555Z,16.70
2019-04-01T11:01:27.131Z,17.00
2019-04-01T11:03:58.542Z,17.10
2019-04-01T11:06:29.787Z,17.10
2019-04-01T11:09:00.636Z,17.20
2019-04-01T11:11:43.953Z,16.90
2019-04-01T11:14:14.405Z,17.00
2019-04-01T11:16:46.067Z,17.00
2019-04-01T11:19:16.943Z,17.50
2019-04-01T11:21:47.421Z,18.80
2019-04-01T11:24:17.852Z,17.30
2019-04-01T11:26:48.168Z,17.30
2019-04-01T11:29:19.004Z,17.30
2019-04-01T11:31:49.892Z,17.10
2019-04-01T11:34:20.231Z,17.10
2019-04-01T11:36:50.715Z,17.10
2019-04-01T11:39:20.979Z,17.20
2019-04-01T11:41:51.364Z,17.40
2019-04-01T11:44:22.439Z,17.30
2019-04-01T11:46:53.545Z,17.40
2019-04-01T11:49:24.173Z,17.40
2019-04-01T11:51:55.986Z,17.50
2019-04-01T11:54:27.311Z,17.40
2019-04-01T11:56:57.617Z,17.70
2019-04-01T11:59:28.020Z,17.70
2019-04-01T12:01:58.408Z,17.80
2019-04-01T12:04:28.762Z,17.90
2019-04-01T12:07:02.016Z,18.00
2019-04-01T12:09:32.052Z,18.10
2019-04-01T12:12:03.311Z,18.50
2019-04-01T12:14:37.446Z,18.50
2019-04-01T12:17:07.736Z,18.60
2019-04-01T12:19:38.065Z,18.40
2019-04-01T12:22:08.484Z,18.40
2019-04-01T12:24:40.178Z,18.20
2019-04-01T12:27:10.511Z,18.40
2019-04-01T12:29:40.837Z,18.30
2019-04-01T12:32:11.911Z,18.40
2019-04-01T12:34:42.708Z,18.40
2019-04-01T12:37:14.054Z,18.80
2019-04-01T12:39:44.436Z,18.70
2019-04-01T12:42:16.765Z,18.90
2019-04-01T12:44:47.259Z,19.00
2019-04-01T12:47:21.735Z,19.10
2019-04-01T12:49:53.452Z,19.00
2019-04-01T12:52:24.081Z,18.70
2019-04-01T12:54:54.593Z,18.70
2019-04-01T12:57:24.806Z,18.90
2019-04-01T12:59:55.400Z,19.10
2019-04-01T13:02:25.861Z,18.90
2019-04-01T13:04:56.167Z,19.00
2019-04-01T13:07:26.614Z,19.10
2019-04-01T13:09:57.815Z,20.00
2019-04-01T13:12:28.094Z,19.10
2019-04-01T13:14:58.381Z,19.00
2019-04-01T13:17:28.752Z,19.00
2019-04-01T13:19:59.153Z,19.00
2019-04-01T13:22:30.675Z,19.10
2019-04-01T13:25:05.450Z,19.10
2019-04-01T13:27:34.087Z,19.10
2019-04-01T13:32:37.688Z,19.10
2019-04-01T13:35:08.252Z,19.20
2019-04-01T13:37:40.394Z,19.20
2019-04-01T13:40:11.430Z,19.40
2019-04-01T13:45:14.001Z,19.40
2019-04-01T13:47:44.564Z,19.40
2019-04-01T13:52:48.068Z,19.60
2019-04-01T13:55:19.515Z,19.70
2019-04-01T13:57:50.908Z,19.80
2019-04-01T14:00:22.793Z,19.80
2019-04-01T14:02:53.712Z,19.90
2019-04-01T14:05:26.627Z,19.90
2019-04-01T14:07:57.322Z,19.90
2019-04-01T14:10:31.280Z,20.00
2019-04-01T14:13:02.023Z,20.20
2019-04-01T14:15:32.498Z,20.20
2019-04-01T14:18:03.257Z,20.30
2019-04-01T14:20:34.884Z,20.20
2019-04-01T14:25:37.826Z,20.20
2019-04-01T14:28:10.357Z,20.30
2019-04-01T14:30:40.830Z,20.20
2019-04-01T14:33:12.819Z,20.20
2019-04-01T14:35:45.214Z,20.20
2019-04-01T14:38:24.452Z,20.30
2019-04-01T14:41:00.048Z,20.40
2019-04-01T14:43:32.932Z,20.60
2019-04-01T14:46:03.057Z,20.80
2019-04-01T14:48:33.405Z,20.80
2019-04-01T14:51:04.650Z,21.00
2019-04-01T14:53:35.250Z,21.50
2019-04-01T14:56:06.295Z,21.90
2019-04-01T14:58:36.896Z,22.20
2019-04-01T15:01:09.097Z,22.40
2019-04-01T15:03:39.583Z,22.80
2019-04-01T15:06:11.089Z,23.10
2019-04-01T15:08:42.418Z,23.10
2019-04-01T15:11:13.036Z,23.10
2019-04-01T15:13:43.728Z,23.20
2019-04-01T15:16:14.798Z,23.50
2019-04-01T15:18:46.929Z,23.60
2019-04-01T15:21:21.771Z,23.40
2019-04-01T15:23:53.365Z,23.70
2019-04-01T15:26:24.476Z,23.70
2019-04-01T15:28:55.176Z,23.80
2019-04-01T15:31:26.853Z,23.80
2019-04-01T15:34:00.779Z,23.60
2019-04-01T15:36:31.226Z,23.40
2019-04-01T15:39:02.993Z,23.10
2019-04-01T15:41:37.055Z,22.70
2019-04-01T15:44:07.334Z,22.70
2019-04-01T15:46:38.109Z,22.90
2019-04-01T15:49:11.282Z,23.00
2019-04-01T15:51:50.485Z,23.00
2019-04-01T15:54:22.866Z,23.20
2019-04-01T15:59:28.115Z,23.60
2019-04-01T16:02:01.397Z,23.50
2019-04-01T16:04:31.824Z,23.50
2019-04-01T16:07:02.820Z,23.50
2019-04-01T16:09:34.142Z,23.30
2019-04-01T16:12:08.657Z,23.40
2019-04-01T16:14:40.282Z,23.80
2019-04-01T16:17:13.462Z,24.00
2019-04-01T16:19:43.903Z,24.20
2019-04-01T16:22:14.341Z,24.20
2019-04-01T16:24:45.289Z,24.20
2019-04-01T16:27:17.047Z,23.90
2019-04-01T16:29:49.205Z,23.90
2019-04-01T16:32:20.288Z,22.60
2019-04-01T16:34:53.037Z,23.90
2019-04-01T16:37:25.102Z,23.80
2019-04-01T16:39:55.613Z,23.70
2019-04-01T16:45:19.803Z,22.90
2019-04-01T16:47:52.670Z,19.90
2019-04-01T16:50:23.125Z,21.90
2019-04-01T16:52:54.006Z,22.60
2019-04-01T16:55:36.560Z,21.20
2019-04-01T16:58:08.867Z,21.00
2019-04-01T17:00:42.705Z,20.90
2019-04-01T17:03:15.496Z,20.60
2019-04-01T17:05:46.974Z,20.40
2019-04-01T17:08:18.235Z,19.90
2019-04-01T17:10:48.682Z,19.90
2019-04-01T17:13:38.257Z,19.60
2019-04-01T17:16:08.933Z,19.60
2019-04-01T17:18:40.218Z,19.20
2019-04-01T17:21:12.587Z,19.20
2019-04-01T17:23:43.060Z,19.10
2019-04-01T17:26:16.812Z,19.00
2019-04-01T17:28:47.153Z,18.90
2019-04-01T17:31:17.467Z,18.60
2019-04-01T17:33:47.809Z,18.60
2019-04-01T17:36:19.005Z,18.60
2019-04-01T17:38:52.033Z,18.50
2019-04-01T17:41:22.582Z,18.40
2019-04-01T17:43:52.778Z,18.20
2019-04-01T17:46:26.293Z,18.20
2019-04-01T17:48:55.376Z,18.10
2019-04-01T17:51:26.058Z,17.90
2019-04-01T17:53:56.869Z,17.90
2019-04-01T17:56:27.529Z,17.80
2019-04-01T17:59:01.257Z,17.60
2019-04-01T18:01:30.307Z,17.40
2019-04-01T18:04:02.297Z,17.50
2019-04-01T18:06:33.042Z,17.40
2019-04-01T18:09:04.226Z,17.40
2019-04-01T18:11:36.480Z,17.30
2019-04-01T18:14:07.592Z,17.10
2019-04-01T18:16:38.602Z,17.00
2019-04-01T18:19:09.013Z,17.00
2019-04-01T18:21:39.448Z,16.90
2019-04-01T18:24:10.531Z,16.90
2019-04-01T18:34:11.968Z,16.70
2019-04-01T18:36:42.402Z,16.70
2019-04-01T18:39:12.949Z,16.00
2019-04-01T18:41:44.908Z,16.50
2019-04-01T18:44:18.668Z,16.50
2019-04-01T18:46:49.570Z,16.30
2019-04-01T18:49:22.470Z,16.40
2019-04-01T18:51:53.870Z,16.30
2019-04-01T18:54:25.779Z,16.30
2019-04-01T18:56:58.127Z,16.30
2019-04-01T18:59:28.634Z,16.10
2019-04-01T19:02:00.819Z,16.20
2019-04-01T19:04:34.138Z,15.10
2019-04-01T19:07:06.406Z,16.20
2019-04-01T19:09:37.198Z,16.20
2019-04-01T19:12:07.761Z,16.10
2019-04-01T19:14:40.174Z,16.10
2019-04-01T19:17:11.727Z,16.10
2019-04-01T19:19:42.713Z,16.10
2019-04-01T19:22:13.926Z,16.00
2019-04-01T19:24:46.164Z,16.00
2019-04-01T19:27:17.170Z,16.00
2019-04-01T19:29:49.617Z,15.90
2019-04-01T19:32:20.269Z,15.70
2019-04-01T19:34:53.867Z,15.80
2019-04-01T19:37:29.303Z,15.70
2019-04-01T19:39:59.631Z,15.70
2019-04-01T19:42:30.869Z,15.60
2019-04-01T19:45:01.603Z,15.60
2019-04-01T19:47:34.155Z,15.50
2019-04-01T19:50:06.586Z,15.40
2019-04-01T19:52:38.157Z,15.50
2019-04-01T19:55:11.200Z,15.10
2019-04-01T19:57:41.574Z,15.30
2019-04-01T20:00:26.726Z,15.30
2019-04-01T20:02:44.938Z,15.30
2019-04-01T20:05:16.775Z,15.20
2019-04-01T20:07:47.170Z,15.10
2019-04-01T20:10:17.721Z,15.00
2019-04-01T20:12:50.748Z,17.70
2019-04-01T20:15:23.000Z,15.00
2019-04-01T20:20:25.496Z,14.90
2019-04-01T20:22:56.370Z,14.90
2019-04-01T20:25:28.279Z,14.80
2019-04-01T20:27:59.001Z,14.70
2019-04-01T20:30:30.257Z,14.40
2019-04-01T20:33:01.419Z,14.70
2019-04-01T20:35:35.227Z,14.70
2019-04-01T20:38:08.039Z,14.50
2019-04-01T20:40:38.676Z,14.50
2019-04-01T20:43:11.712Z,14.50
2019-04-01T20:45:42.919Z,14.40
2019-04-01T20:48:13.732Z,14.20
2019-04-01T20:50:43.990Z,14.30
2019-04-01T20:53:15.722Z,14.30
2019-04-01T20:55:48.624Z,14.20
2019-04-01T20:58:20.846Z,14.20
2019-04-01T21:00:51.899Z,14.20
2019-04-01T21:03:22.653Z,14.20
2019-04-01T21:05:55.523Z,14.20
2019-04-01T21:08:26.079Z,14.20
2019-04-01T21:10:57.201Z,14.20
2019-04-01T21:13:27.561Z,14.20
2019-04-01T21:15:59.706Z,14.20
2019-04-01T21:18:32.524Z,14.20
2019-04-01T21:21:02.869Z,14.10
2019-04-01T21:23:36.519Z,14.10
2019-04-01T21:26:07.427Z,14.10
2019-04-01T21:28:38.041Z,13.90
2019-04-01T21:31:08.294Z,14.00
2019-04-01T21:33:39.263Z,14.00
2019-04-01T21:36:10.070Z,14.00
2019-04-01T21:38:40.670Z,14.00
2019-04-01T21:41:11.139Z,14.00
2019-04-01T21:43:41.697Z,14.00
2019-04-01T21:46:13.197Z,13.90
2019-04-01T21:48:44.591Z,14.00
2019-04-01T21:51:14.959Z,13.90
2019-04-01T21:53:45.385Z,13.90
2019-04-01T21:56:16.123Z,13.90
2019-04-01T21:58:47.130Z,13.90
2019-04-01T22:01:25.526Z,13.90
2019-04-01T22:04:03.474Z,13.90
2019-04-01T22:06:40.173Z,13.80
2019-04-01T22:09:12.144Z,13.80
2019-04-01T22:11:43.228Z,13.70
2019-04-01T22:14:14.414Z,13.60
2019-04-01T22:16:44.990Z,13.60
2019-04-01T22:19:16.590Z,13.60
2019-04-01T22:21:48.487Z,13.60
2019-04-01T22:24:19.613Z,13.60
2019-04-01T22:26:49.912Z,13.50
2019-04-01T22:29:20.504Z,13.50
2019-04-01T22:31:50.935Z,13.50
2019-04-01T22:34:21.332Z,13.50
2019-04-01T22:36:52.037Z,13.40
2019-04-01T22:39:27.400Z,13.10
2019-04-01T22:41:54.571Z,13.20
2019-04-01T22:44:25.991Z,13.10
2019-04-01T22:46:56.368Z,13.10
2019-04-01T22:49:26.666Z,13.10
2019-04-01T22:51:58.133Z,13.00
2019-04-01T22:54:28.680Z,13.00
2019-04-01T22:56:58.893Z,12.90
2019-04-01T22:59:29.366Z,12.90
2019-04-01T23:01:59.683Z,12.90
2019-04-01T23:04:29.971Z,12.80
2019-04-01T23:07:00.555Z,12.80
2019-04-01T23:09:30.813Z,12.70
2019-04-01T23:12:01.119Z,12.70
2019-04-01T23:14:31.523Z,12.70
2019-04-01T23:17:02.014Z,12.60
2019-04-01T23:19:34.342Z,12.60
2019-04-01T23:22:04.820Z,12.70
2019-04-01T23:24:35.305Z,12.60
2019-04-01T23:27:05.690Z,12.50
2019-04-01T23:29:36.044Z,12.50
2019-04-01T23:34:35.918Z,12.40
2019-04-01T23:37:06.241Z,11.80
2019-04-01T23:39:36.443Z,12.40
2019-04-01T23:42:08.603Z,12.30
2019-04-01T23:44:39.009Z,12.30
2019-04-01T23:47:09.458Z,12.30
2019-04-01T23:49:40.849Z,12.20
2019-04-01T23:52:11.438Z,12.20
2019-04-01T23:54:41.815Z,12.20
2019-04-01T23:57:13.084Z,12.20
2019-04-01T23:59:43.477Z,12.20
